createdAt,value
2022-10-27T00:00:44.888Z,100699.66
2022-10-27T00:03:35.068Z,100698.47
2022-10-27T00:06:24.450Z,100703.69
2022-10-27T00:09:12.983Z,100713.03
2022-10-27T00:12:03.249Z,100715.69
2022-10-27T00:14:52.338Z,100729.81
2022-10-27T00:17:42.344Z,100723.03
2022-10-27T00:20:31.461Z,100723.31
2022-10-27T00:23:20.824Z,100719.41
2022-10-27T00:26:13.045Z,100721.69
2022-10-27T00:29:02.222Z,100719.78
2022-10-27T00:31:50.831Z,100726.13
2022-10-27T00:34:40.175Z,100723.72
2022-10-27T00:37:30.680Z,100720.97
2022-10-27T00:40:20.363Z,100730.56
2022-10-27T00:43:34.233Z,100733.84
2022-10-27T00:46:46.969Z,100736.09
2022-10-27T00:49:48.093Z,100734.16
2022-10-27T00:52:48.992Z,100737.34
2022-10-27T00:55:40.973Z,100742.16
2022-10-27T00:58:30.337Z,100749.72
2022-10-27T01:01:20.598Z,100742.66
2022-10-27T01:04:10.090Z,100741.75
2022-10-27T01:06:59.429Z,100744.91
2022-10-27T01:09:49.466Z,100746.22
2022-10-27T01:12:38.776Z,100742.16
2022-10-27T01:15:49.525Z,100743.47
2022-10-27T01:18:44.251Z,100746.44
2022-10-27T01:22:10.261Z,100755.19
2022-10-27T01:25:29.530Z,100744.97
2022-10-27T01:28:51.919Z,100743.88
2022-10-27T01:31:57.859Z,100759.69
2022-10-27T01:34:47.854Z,100758.56
2022-10-27T01:38:17.167Z,100757.38
2022-10-27T01:41:34.262Z,100746.16
2022-10-27T01:44:31.187Z,100751.81
2022-10-27T01:47:23.193Z,100751.34
2022-10-27T01:50:12.184Z,100745.28
2022-10-27T01:53:02.521Z,100736.06
2022-10-27T01:56:06.548Z,100738.56
2022-10-27T01:59:17.680Z,100734.94
2022-10-27T02:02:12.239Z,100723.09
2022-10-27T02:05:42.146Z,100728.00
2022-10-27T02:09:00.183Z,100712.19
2022-10-27T02:11:53.497Z,100717.75
2022-10-27T02:14:44.439Z,100719.88
2022-10-27T02:17:40.127Z,100715.00
2022-10-27T02:20:33.560Z,100708.00
2022-10-27T02:23:23.784Z,100705.13
2022-10-27T02:26:29.427Z,100709.38
2022-10-27T02:29:24.682Z,100698.69
2022-10-27T02:32:17.765Z,100696.50
2022-10-27T02:35:07.495Z,100699.69
2022-10-27T02:38:00.105Z,100691.56
2022-10-27T02:40:49.415Z,100675.22
2022-10-27T02:43:39.305Z,100660.25
2022-10-27T02:46:28.197Z,100649.28
2022-10-27T02:49:17.826Z,100662.00
2022-10-27T02:52:07.177Z,100640.88
2022-10-27T02:54:56.119Z,100647.78
2022-10-27T02:57:49.638Z,100637.59
2022-10-27T03:00:38.622Z,100633.66
2022-10-27T03:03:27.716Z,100629.94
2022-10-27T03:06:18.164Z,100628.06
2022-10-27T03:09:07.913Z,100617.28
2022-10-27T03:11:59.459Z,100627.69
2022-10-27T03:14:48.901Z,100608.16
2022-10-27T03:17:38.189Z,100612.72
2022-10-27T03:20:27.090Z,100611.69
2022-10-27T03:23:16.338Z,100614.38
2022-10-27T03:26:05.753Z,100604.59
2022-10-27T03:28:54.949Z,100601.91
2022-10-27T03:31:44.193Z,100604.81
2022-10-27T03:34:33.590Z,100600.03
2022-10-27T03:37:23.475Z,100593.59
2022-10-27T03:40:13.761Z,100588.19
2022-10-27T03:43:05.526Z,100593.19
2022-10-27T03:45:57.299Z,100592.75
2022-10-27T03:48:51.697Z,100592.75
2022-10-27T03:51:41.055Z,100590.66
2022-10-27T03:54:37.051Z,100588.78
2022-10-27T03:57:27.265Z,100574.84
2022-10-27T04:00:16.683Z,100580.25
2022-10-27T04:03:06.393Z,100574.25
2022-10-27T04:05:56.549Z,100568.19
2022-10-27T04:08:47.270Z,100556.13
2022-10-27T04:11:36.423Z,100561.53
2022-10-27T04:14:25.101Z,100541.13
2022-10-27T04:17:13.925Z,100557.34
2022-10-27T04:20:02.943Z,100537.38
2022-10-27T04:22:52.381Z,100547.41
2022-10-27T04:25:41.548Z,100540.72
2022-10-27T04:28:30.939Z,100559.69
2022-10-27T04:31:21.561Z,100532.34
2022-10-27T04:34:13.292Z,100517.94
2022-10-27T04:37:02.824Z,100522.69
2022-10-27T04:39:51.759Z,100522.94
2022-10-27T04:42:47.720Z,100519.78
2022-10-27T04:45:39.719Z,100506.44
2022-10-27T04:48:28.767Z,100525.63
2022-10-27T04:51:22.304Z,100508.09
2022-10-27T04:54:11.615Z,100500.16
2022-10-27T04:57:01.372Z,100500.38
2022-10-27T04:59:51.004Z,100493.44
2022-10-27T05:02:39.857Z,100494.47
2022-10-27T05:05:30.256Z,100496.13
2022-10-27T05:08:19.901Z,100491.75
2022-10-27T05:11:12.594Z,100494.03
2022-10-27T05:14:04.568Z,100482.03
2022-10-27T05:16:53.914Z,100477.03
2022-10-27T05:19:46.033Z,100475.34
2022-10-27T05:22:37.439Z,100482.81
2022-10-27T05:25:26.297Z,100474.84
2022-10-27T05:28:15.457Z,100475.91
2022-10-27T05:31:04.646Z,100471.03
2022-10-27T05:33:54.364Z,100472.06
2022-10-27T05:36:43.955Z,100457.19
2022-10-27T05:39:33.223Z,100440.44
2022-10-27T05:42:22.133Z,100443.69
2022-10-27T05:45:11.370Z,100433.59
2022-10-27T05:48:05.750Z,100431.88
2022-10-27T05:50:55.589Z,100438.06
2022-10-27T05:53:44.325Z,100430.47
2022-10-27T05:56:33.972Z,100429.44
2022-10-27T05:59:22.868Z,100438.78
2022-10-27T06:02:13.341Z,100428.38
2022-10-27T06:05:02.780Z,100419.63
2022-10-27T06:07:53.465Z,100433.84
2022-10-27T06:10:43.357Z,100428.50
2022-10-27T06:13:32.852Z,100430.00
2022-10-27T06:16:23.044Z,100428.97
2022-10-27T06:19:12.757Z,100427.31
2022-10-27T06:22:01.732Z,100425.28
2022-10-27T06:24:50.831Z,100422.84
2022-10-27T06:27:39.544Z,100422.84
2022-10-27T06:30:31.550Z,100420.22
2022-10-27T06:33:21.795Z,100417.09
2022-10-27T06:36:11.608Z,100402.91
2022-10-27T06:39:00.970Z,100404.59
2022-10-27T06:41:53.108Z,100412.56
2022-10-27T06:44:44.816Z,100407.56
2022-10-27T06:47:34.262Z,100398.38
2022-10-27T06:50:23.480Z,100406.53
2022-10-27T06:53:13.245Z,100402.16
2022-10-27T06:56:02.031Z,100393.41
2022-10-27T06:58:54.072Z,100393.41
2022-10-27T07:01:46.423Z,100396.56
2022-10-27T07:04:36.243Z,100385.09
2022-10-27T07:07:28.518Z,100393.84
2022-10-27T07:10:18.495Z,100390.97
2022-10-27T07:13:07.730Z,100390.53
2022-10-27T07:15:56.680Z,100380.97
2022-10-27T07:18:50.536Z,100386.38
2022-10-27T07:21:39.748Z,100384.72
2022-10-27T07:24:32.129Z,100385.97
2022-10-27T07:27:21.739Z,100388.50
2022-10-27T07:30:11.306Z,100376.38
2022-10-27T07:33:00.393Z,100383.06
2022-10-27T07:35:54.173Z,100372.66
2022-10-27T07:38:43.737Z,100374.75
2022-10-27T07:41:33.069Z,100374.31
2022-10-27T07:44:22.564Z,100367.25
2022-10-27T07:47:11.631Z,100375.59
2022-10-27T07:50:00.460Z,100379.56
2022-10-27T07:52:51.603Z,100370.63
2022-10-27T07:55:41.397Z,100368.56
2022-10-27T07:58:31.470Z,100369.63
2022-10-27T08:01:20.953Z,100368.41
2022-10-27T08:04:12.985Z,100377.00
2022-10-27T08:07:02.928Z,100368.00
2022-10-27T08:09:52.114Z,100373.25
2022-10-27T08:12:47.929Z,100369.13
2022-10-27T08:15:38.521Z,100376.66
2022-10-27T08:18:27.712Z,100365.81
2022-10-27T08:21:16.339Z,100369.38
2022-10-27T08:24:09.986Z,100365.84
2022-10-27T08:26:59.446Z,100373.16
2022-10-27T08:29:52.652Z,100364.84
2022-10-27T08:32:43.317Z,100363.19
2022-10-27T08:35:39.034Z,100363.19
2022-10-27T08:38:31.171Z,100366.28
2022-10-27T08:41:30.333Z,100367.53
2022-10-27T08:44:49.730Z,100358.59
2022-10-27T08:47:39.590Z,100378.63
2022-10-27T08:50:30.726Z,100382.63
2022-10-27T08:53:33.264Z,100373.44
2022-10-27T08:56:23.137Z,100378.88
2022-10-27T08:59:18.395Z,100385.53
2022-10-27T09:02:29.169Z,100387.47
2022-10-27T09:05:31.346Z,100379.31
2022-10-27T09:08:28.119Z,100393.31
2022-10-27T09:11:23.628Z,100390.81
2022-10-27T09:14:41.976Z,100396.88
2022-10-27T09:17:44.704Z,100405.00
2022-10-27T09:20:52.585Z,100401.91
2022-10-27T09:23:53.605Z,100400.91
2022-10-27T09:26:43.968Z,100411.31
2022-10-27T09:29:43.414Z,100414.44
2022-10-27T09:32:35.109Z,100419.06
2022-10-27T09:35:32.184Z,100421.13
2022-10-27T09:38:24.573Z,100435.69
2022-10-27T09:41:13.319Z,100442.78
2022-10-27T09:44:03.125Z,100450.72
2022-10-27T09:46:56.446Z,100446.56
2022-10-27T09:49:49.246Z,100443.44
2022-10-27T09:52:44.447Z,100449.88
2022-10-27T09:55:54.669Z,100458.44
2022-10-27T09:58:51.473Z,100466.78
2022-10-27T10:01:50.920Z,100476.97
2022-10-27T10:04:48.395Z,100469.28
2022-10-27T10:07:42.007Z,100472.00
2022-10-27T10:10:31.709Z,100471.16
2022-10-27T10:13:21.686Z,100477.41
2022-10-27T10:16:17.139Z,100481.16
2022-10-27T10:19:21.536Z,100488.03
2022-10-27T10:22:22.364Z,100483.66
2022-10-27T10:25:25.728Z,100493.00
2022-10-27T10:28:41.064Z,100501.31
2022-10-27T10:31:32.212Z,100513.63
2022-10-27T10:34:48.834Z,100527.78
2022-10-27T10:37:55.969Z,100527.78
2022-10-27T10:40:44.601Z,100525.66
2022-10-27T10:43:33.822Z,100527.34
2022-10-27T10:46:26.681Z,100529.00
2022-10-27T10:49:43.248Z,100527.34
2022-10-27T10:52:38.490Z,100538.16
2022-10-27T10:55:36.442Z,100536.28
2022-10-27T10:58:27.962Z,100529.41
2022-10-27T11:01:16.828Z,100535.88
2022-10-27T11:04:06.930Z,100542.31
2022-10-27T11:07:02.137Z,100542.72
2022-10-27T11:10:32.470Z,100552.72
2022-10-27T11:13:23.419Z,100552.31
2022-10-27T11:16:14.002Z,100549.00
2022-10-27T11:19:08.602Z,100545.03
2022-10-27T11:22:05.737Z,100550.84
2022-10-27T11:25:07.169Z,100557.28
2022-10-27T11:28:12.291Z,100557.69
2022-10-27T11:31:37.218Z,100560.59
2022-10-27T11:34:48.522Z,100552.88
2022-10-27T11:37:46.564Z,100552.06
2022-10-27T11:40:48.801Z,100554.78
2022-10-27T11:43:50.574Z,100560.59
2022-10-27T11:47:13.245Z,100561.00
2022-10-27T11:50:40.694Z,100566.81
2022-10-27T11:53:30.557Z,100574.69
2022-10-27T11:56:44.343Z,100575.53
2022-10-27T12:00:09.452Z,100573.03
2022-10-27T12:03:20.450Z,100573.88
2022-10-27T12:06:11.937Z,100575.72
2022-10-27T12:09:28.966Z,100569.56
2022-10-27T12:12:41.546Z,100571.03
2022-10-27T12:15:57.048Z,100568.97
2022-10-27T12:18:58.228Z,100562.28
2022-10-27T12:22:09.018Z,100570.44
2022-10-27T12:25:11.159Z,100569.81
2022-10-27T12:28:03.386Z,100567.91
2022-10-27T12:31:02.414Z,100571.88
2022-10-27T12:33:57.036Z,100568.13
2022-10-27T12:37:00.784Z,100563.13
2022-10-27T12:39:58.888Z,100566.03
2022-10-27T12:43:12.230Z,100558.78
2022-10-27T12:46:30.251Z,100552.31
2022-10-27T12:49:43.286Z,100556.88
2022-10-27T12:52:36.108Z,100549.41
2022-10-27T12:55:54.912Z,100544.00
2022-10-27T12:58:53.276Z,100550.44
2022-10-27T13:01:57.128Z,100555.22
2022-10-27T13:05:19.571Z,100553.13
2022-10-27T13:08:36.165Z,100562.69
2022-10-27T13:11:38.482Z,100562.28
2022-10-27T13:14:51.596Z,100562.50
2022-10-27T13:17:56.940Z,100563.97
2022-10-27T13:20:48.466Z,100565.19
2022-10-27T13:23:55.321Z,100572.72
2022-10-27T13:26:55.655Z,100558.13
2022-10-27T13:30:32.279Z,100558.13
2022-10-27T13:33:43.817Z,100560.22
2022-10-27T13:36:32.824Z,100570.41
2022-10-27T13:39:22.357Z,100575.41
2022-10-27T13:42:18.306Z,100572.72
2022-10-27T13:45:29.354Z,100581.00
2022-10-27T13:48:18.362Z,100576.84
2022-10-27T13:51:48.923Z,100592.69
2022-10-27T13:54:55.278Z,100584.34
2022-10-27T13:58:06.783Z,100578.53
2022-10-27T14:01:21.822Z,100586.19
2022-10-27T14:04:43.274Z,100591.41
2022-10-27T14:07:39.708Z,100587.47
2022-10-27T14:10:31.621Z,100592.25
2022-10-27T14:13:37.418Z,100587.66
2022-10-27T14:16:35.475Z,100602.22
2022-10-27T14:19:31.442Z,100604.28
2022-10-27T14:22:53.875Z,100606.78
2022-10-27T14:25:47.873Z,100595.75
2022-10-27T14:28:36.995Z,100602.19
2022-10-27T14:31:26.500Z,100598.22
2022-10-27T14:34:20.974Z,100594.69
2022-10-27T14:37:22.005Z,100598.41
2022-10-27T14:40:22.146Z,100598.00
2022-10-27T14:43:23.042Z,100603.81
2022-10-27T14:46:23.534Z,100604.28
2022-10-27T14:49:47.251Z,100602.38
2022-10-27T14:52:45.882Z,100592.19
2022-10-27T14:55:40.161Z,100594.00
2022-10-27T14:58:29.731Z,100581.28
2022-10-27T15:01:27.628Z,100585.66
2022-10-27T15:04:27.279Z,100580.88
2022-10-27T15:07:21.108Z,100572.97
2022-10-27T15:10:18.478Z,100591.06
2022-10-27T15:13:12.389Z,100605.00
2022-10-27T15:16:08.747Z,100604.13
2022-10-27T15:19:02.203Z,100598.94
2022-10-27T15:21:51.687Z,100599.97
2022-10-27T15:24:40.455Z,100592.09
2022-10-27T15:27:35.404Z,100583.53
2022-10-27T15:30:24.163Z,100577.09
2022-10-27T15:33:29.431Z,100578.34
2022-10-27T15:36:18.497Z,100566.25
2022-10-27T15:39:13.675Z,100565.22
2022-10-27T15:42:05.638Z,100553.16
2022-10-27T15:44:59.031Z,100557.06
2022-10-27T15:47:52.188Z,100561.66
2022-10-27T15:50:44.187Z,100555.81
2022-10-27T15:53:46.262Z,100556.22
2022-10-27T15:56:38.029Z,100545.41
2022-10-27T15:59:30.049Z,100538.31
2022-10-27T16:02:32.282Z,100533.13
2022-10-27T16:05:34.162Z,100521.28
2022-10-27T16:08:22.774Z,100517.09
2022-10-27T16:11:14.474Z,100524.97
2022-10-27T16:14:32.959Z,100542.44
2022-10-27T16:17:41.268Z,100543.25
2022-10-27T16:20:45.358Z,100542.63
2022-10-27T16:23:38.884Z,100528.66
2022-10-27T16:26:30.840Z,100537.59
2022-10-27T16:29:22.965Z,100535.28
2022-10-27T16:32:13.833Z,100520.75
2022-10-27T16:35:06.071Z,100518.22
2022-10-27T16:37:54.811Z,100512.38
2022-10-27T16:40:47.669Z,100498.66
2022-10-27T16:43:38.189Z,100504.03
2022-10-27T16:46:28.573Z,100494.06
2022-10-27T16:49:17.423Z,100491.56
2022-10-27T16:52:09.869Z,100483.66
2022-10-27T16:54:59.724Z,100480.75
2022-10-27T16:57:51.555Z,100477.41
2022-10-27T17:00:46.630Z,100466.16
2022-10-27T17:03:40.695Z,100456.59
2022-10-27T17:06:30.102Z,100454.72
2022-10-27T17:09:27.326Z,100454.94
2022-10-27T17:12:16.066Z,100439.53
2022-10-27T17:15:25.809Z,100439.94
2022-10-27T17:18:15.512Z,100436.19
2022-10-27T17:21:07.734Z,100445.97
2022-10-27T17:23:56.528Z,100446.94
2022-10-27T17:26:45.600Z,100451.31
2022-10-27T17:29:34.457Z,100448.19
2022-10-27T17:32:24.406Z,100439.41
2022-10-27T17:35:13.126Z,100431.09
2022-10-27T17:38:02.878Z,100435.44
2022-10-27T17:40:53.398Z,100420.69
2022-10-27T17:43:42.615Z,100414.00
2022-10-27T17:46:31.675Z,100412.13
2022-10-27T17:49:30.593Z,100403.22
2022-10-27T17:52:20.240Z,100409.41
2022-10-27T17:55:09.932Z,100403.38
2022-10-27T17:57:59.627Z,100406.06
2022-10-27T18:00:48.810Z,100401.06
2022-10-27T18:03:42.320Z,100411.88
2022-10-27T18:06:33.096Z,100399.78
2022-10-27T18:09:22.805Z,100391.88
2022-10-27T18:12:12.402Z,100392.91
2022-10-27T18:15:23.797Z,100393.13
2022-10-27T18:18:11.212Z,100393.13
2022-10-27T18:21:05.730Z,100391.84
2022-10-27T18:23:59.970Z,100387.50
2022-10-27T18:26:49.240Z,100397.63
2022-10-27T18:29:39.767Z,100390.97
2022-10-27T18:32:31.141Z,100397.00
2022-10-27T18:35:22.337Z,100403.44
2022-10-27T18:38:11.476Z,100403.63
2022-10-27T18:41:04.431Z,100400.47
2022-10-27T18:43:55.365Z,100406.28
2022-10-27T18:46:45.111Z,100405.63
2022-10-27T18:49:48.060Z,100405.63
2022-10-27T18:52:38.544Z,100410.00
2022-10-27T18:55:27.335Z,100404.97
2022-10-27T18:58:16.343Z,100405.16
2022-10-27T19:01:16.040Z,100389.81
2022-10-27T19:04:09.815Z,100385.84
2022-10-27T19:06:59.363Z,100393.94
2022-10-27T19:09:49.177Z,100385.19
2022-10-27T19:12:38.069Z,100382.50
2022-10-27T19:15:27.802Z,100366.28
2022-10-27T19:18:16.982Z,100377.06
2022-10-27T19:24:03.299Z,100379.13
2022-10-27T19:26:54.325Z,100381.19
2022-10-27T19:29:43.110Z,100388.25
2022-10-27T19:32:32.819Z,100392.16
2022-10-27T19:35:22.146Z,100382.78
2022-10-27T19:38:11.701Z,100388.16
2022-10-27T19:41:01.345Z,100364.94
2022-10-27T19:43:55.694Z,100372.38
2022-10-27T19:46:44.845Z,100370.06
2022-10-27T19:49:33.909Z,100370.72
2022-10-27T19:52:23.190Z,100370.53
2022-10-27T19:55:12.396Z,100367.75
2022-10-27T19:58:01.718Z,100355.69
2022-10-27T20:00:50.644Z,100351.53
2022-10-27T20:03:41.356Z,100361.31
2022-10-27T20:06:35.659Z,100357.75
2022-10-27T20:09:24.992Z,100361.94
2022-10-27T20:12:14.090Z,100358.59
2022-10-27T20:15:03.088Z,100356.56
2022-10-27T20:17:52.709Z,100349.66
2022-10-27T20:20:42.271Z,100355.44
2022-10-27T20:23:32.424Z,100334.91
2022-10-27T20:26:29.033Z,100324.13
2022-10-27T20:29:24.134Z,100317.88
2022-10-27T20:32:16.305Z,100314.53
2022-10-27T20:35:07.103Z,100315.38
2022-10-27T20:37:57.416Z,100320.28
2022-10-27T20:40:49.202Z,100311.84
2022-10-27T20:43:38.542Z,100314.53
2022-10-27T20:46:29.627Z,100308.66
2022-10-27T20:49:18.469Z,100315.28
2022-10-27T20:52:07.846Z,100308.63
2022-10-27T20:54:56.897Z,100306.94
2022-10-27T20:57:46.376Z,100305.28
2022-10-27T21:00:35.328Z,100299.91
2022-10-27T21:03:24.908Z,100296.16
2022-10-27T21:06:14.103Z,100301.94
2022-10-27T21:09:05.774Z,100304.00
2022-10-27T21:11:54.790Z,100301.31
2022-10-27T21:14:44.518Z,100292.75
2022-10-27T21:17:33.974Z,100293.53
2022-10-27T21:20:22.756Z,100289.00
2022-10-27T21:23:14.655Z,100292.25
2022-10-27T21:26:07.610Z,100288.13
2022-10-27T21:28:57.901Z,100294.75
2022-10-27T21:31:47.568Z,100284.38
2022-10-27T21:34:36.984Z,100277.56
2022-10-27T21:37:27.212Z,100278.59
2022-10-27T21:40:18.751Z,100288.09
2022-10-27T21:43:07.752Z,100286.44
2022-10-27T21:45:57.855Z,100300.16
2022-10-27T21:48:47.076Z,100320.84
2022-10-27T21:51:36.310Z,100329.13
2022-10-27T21:54:26.337Z,100334.53
2022-10-27T21:57:15.328Z,100332.47
2022-10-27T22:00:05.119Z,100350.88
2022-10-27T22:02:53.371Z,100359.78
2022-10-27T22:05:43.865Z,100352.09
2022-10-27T22:08:32.857Z,100358.31
2022-10-27T22:11:24.943Z,100363.50
2022-10-27T22:14:14.995Z,100370.94
2022-10-27T22:17:03.699Z,100375.31
2022-10-27T22:19:54.215Z,100375.69
2022-10-27T22:22:43.388Z,100379.19
2022-10-27T22:25:33.624Z,100373.00
2022-10-27T22:28:22.500Z,100369.91
2022-10-27T22:31:13.737Z,100370.09
2022-10-27T22:34:04.098Z,100369.91
2022-10-27T22:36:53.799Z,100379.19
2022-10-27T22:39:42.764Z,100376.97
2022-10-27T22:42:32.249Z,100379.69
2022-10-27T22:45:23.520Z,100387.09
2022-10-27T22:48:12.352Z,100389.41
2022-10-27T22:51:06.764Z,100393.78
2022-10-27T22:53:56.874Z,100395.25
2022-10-27T22:56:45.863Z,100396.75
2022-10-27T22:59:35.222Z,100398.78
2022-10-27T23:02:24.923Z,100403.34
2022-10-27T23:05:17.368Z,100422.41
2022-10-27T23:08:06.592Z,100420.34
2022-10-27T23:11:04.712Z,100436.50
2022-10-27T23:13:54.394Z,100441.13
2022-10-27T23:16:44.918Z,100435.81
2022-10-27T23:19:34.070Z,100414.72
2022-10-27T23:22:26.180Z,100415.94
2022-10-27T23:25:15.749Z,100433.84
2022-10-27T23:28:06.157Z,100435.13
2022-10-27T23:30:55.327Z,100453.88
2022-10-27T23:33:47.606Z,100438.19
2022-10-27T23:36:37.110Z,100426.00
2022-10-27T23:39:27.791Z,100434.06
2022-10-27T23:42:16.988Z,100446.97
2022-10-27T23:45:06.274Z,100458.41
2022-10-27T23:47:55.521Z,100460.28
2022-10-27T23:50:45.294Z,100458.59
2022-10-27T23:53:44.463Z,100463.88
2022-10-27T23:56:33.189Z,100463.22
2022-10-27T23:59:22.981Z,100464.03
